Time;durP1;ratioP1;P1;durP2;ratioP2;P2;SDS_P1;SDS_P2;PMS_P1;PMS_P2;Temp;Humidity;BMP_temperature;BMP_pressure;BME280_temperature;BME280_humidity;BME280_pressure;Samples;Min_cycle;Max_cycle;Signal;HPM_P1;HPM_P2
2023/04/27 00:00:16;;;;;;;2.55;2.35;;;22.60;36.50;;;;;;5014609;28;20050;-60
2023/04/27 00:02:43;;;;;;;3.38;2.10;;;22.50;36.40;;;;;;5014877;28;20056;-59
2023/04/27 00:05:10;;;;;;;3.05;2.13;;;22.50;36.40;;;;;;5014730;28;20347;-60
2023/04/27 00:07:38;;;;;;;2.58;2.03;;;22.50;36.40;;;;;;5014621;28;20041;-60
2023/04/27 00:10:06;;;;;;;2.55;2.17;;;22.50;36.40;;;;;;5014989;28;20085;-59
2023/04/27 00:12:33;;;;;;;2.60;2.25;;;22.50;36.40;;;;;;5013612;28;20505;-60
2023/04/27 00:15:00;;;;;;;3.28;2.00;;;22.50;36.40;;;;;;5014506;28;20046;-60
2023/04/27 00:17:27;;;;;;;2.15;1.80;;;22.50;36.30;;;;;;5014945;28;20054;-61
2023/04/27 00:19:54;;;;;;;2.55;2.10;;;22.50;36.30;;;;;;5014645;28;20133;-60
2023/04/27 00:22:21;;;;;;;3.50;2.60;;;22.50;36.30;;;;;;5014248;28;20050;-60
2023/04/27 00:24:49;;;;;;;2.60;2.00;;;22.50;36.40;;;;;;5014469;28;20050;-59
2023/04/27 00:27:16;;;;;;;2.95;2.10;;;22.50;36.40;;;;;;5014684;28;20402;-60
2023/04/27 00:29:43;;;;;;;1.70;1.60;;;22.50;36.40;;;;;;5014462;28;20133;-60
2023/04/27 00:32:10;;;;;;;3.58;1.88;;;22.50;36.40;;;;;;5013571;28;20129;-60
2023/04/27 00:34:38;;;;;;;3.17;2.30;;;22.50;36.50;;;;;;5013458;28;20049;-60
2023/04/27 00:37:05;;;;;;;2.65;1.90;;;22.50;36.40;;;;;;5014307;28;20141;-60
2023/04/27 00:39:34;;;;;;;3.17;2.22;;;22.50;36.50;;;;;;5013893;28;20113;-60
2023/04/27 00:42:01;;;;;;;2.90;2.03;;;22.40;36.40;;;;;;5014485;28;20124;-60
2023/04/27 00:44:28;;;;;;;2.33;2.00;;;22.40;36.40;;;;;;5014098;28;20049;-60
2023/04/27 00:46:57;;;;;;;2.05;1.65;;;22.40;36.40;;;;;;5014013;28;20056;-59
2023/04/27 00:49:25;;;;;;;3.65;2.33;;;22.40;36.40;;;;;;5012836;28;20054;-59
2023/04/27 00:51:53;;;;;;;2.38;1.65;;;22.40;36.40;;;;;;5013960;28;20053;-60
2023/04/27 00:54:21;;;;;;;2.08;1.67;;;22.40;36.50;;;;;;5013561;28;20052;-60
2023/04/27 00:56:50;;;;;;;3.20;2.17;;;22.40;36.50;;;;;;5014267;28;20078;-60
2023/04/27 00:59:18;;;;;;;1.98;1.83;;;22.40;36.40;;;;;;5013614;28;20046;-60
2023/04/27 01:01:46;;;;;;;3.97;1.98;;;22.40;36.40;;;;;;5012172;28;20056;-60
2023/04/27 01:04:13;;;;;;;2.53;1.70;;;22.40;36.50;;;;;;5013224;28;20042;-60
2023/04/27 01:06:41;;;;;;;2.30;2.10;;;22.40;36.50;;;;;;5013811;28;20050;-60
2023/04/27 01:09:08;;;;;;;3.53;2.40;;;22.40;36.60;;;;;;5012852;28;20053;-60
2023/04/27 01:11:35;;;;;;;1.70;1.60;;;22.40;36.60;;;;;;5011926;28;20060;-61
2023/04/27 01:14:04;;;;;;;2.58;1.70;;;22.40;36.60;;;;;;5013781;28;20121;-59
2023/04/27 01:16:33;;;;;;;2.17;1.63;;;22.40;36.60;;;;;;5013679;28;20045;-60
2023/04/27 01:19:00;;;;;;;2.05;1.30;;;22.40;36.60;;;;;;5013826;28;20121;-60
2023/04/27 01:21:27;;;;;;;1.92;1.67;;;22.30;36.60;;;;;;5011829;28;20046;-59
2023/04/27 01:23:55;;;;;;;2.10;1.90;;;22.40;36.70;;;;;;5013306;28;20136;-60
2023/04/27 01:26:22;;;;;;;3.55;1.60;;;22.40;36.70;;;;;;5013800;28;20150;-60
2023/04/27 01:28:49;;;;;;;2.75;1.80;;;22.30;36.60;;;;;;5013899;28;20053;-60
2023/04/27 01:31:16;;;;;;;1.80;1.58;;;22.40;36.70;;;;;;5012963;28;20057;-60
2023/04/27 01:33:43;;;;;;;2.38;1.85;;;22.40;36.60;;;;;;5013278;28;20053;-59
2023/04/27 01:36:10;;;;;;;1.98;1.67;;;22.40;36.60;;;;;;5013485;28;20145;-60
2023/04/27 01:38:38;;;;;;;2.17;1.70;;;22.40;36.50;;;;;;5013352;28;20048;-59
2023/04/27 01:41:07;;;;;;;2.13;1.50;;;22.40;36.50;;;;;;5013859;28;20050;-60
2023/04/27 01:43:38;;;;;;;1.98;1.73;;;22.40;36.50;;;;;;5013088;28;20049;-59
2023/04/27 01:46:07;;;;;;;1.85;1.63;;;22.40;36.50;;;;;;5015157;28;20050;-60
2023/04/27 01:48:35;;;;;;;4.10;1.83;;;22.40;36.50;;;;;;5017205;28;20552;-60
2023/04/27 01:51:02;;;;;;;1.50;1.40;;;22.40;36.50;;;;;;5016738;28;20140;-59
2023/04/27 01:53:30;;;;;;;2.05;1.85;;;22.40;36.50;;;;;;5017528;28;20080;-60
2023/04/27 01:56:02;;;;;;;2.08;1.38;;;22.30;36.40;;;;;;5017316;28;20085;-60
2023/04/27 01:58:29;;;;;;;1.73;1.63;;;22.30;36.40;;;;;;5016918;28;20054;-60
2023/04/27 02:00:57;;;;;;;3.38;1.73;;;22.30;36.40;;;;;;5016414;28;20046;-60
2023/04/27 02:03:24;;;;;;;2.55;1.88;;;22.40;36.40;;;;;;5016011;28;20425;-60
2023/04/27 02:05:51;;;;;;;1.40;1.30;;;22.30;36.40;;;;;;5017572;28;20409;-60
2023/04/27 02:08:18;;;;;;;3.15;1.73;;;22.30;36.40;;;;;;5017288;28;20073;-60
2023/04/27 02:10:45;;;;;;;2.08;1.60;;;22.30;36.40;;;;;;5015673;28;20401;-60
2023/04/27 02:13:13;;;;;;;2.95;2.03;;;22.30;36.40;;;;;;5016505;28;20060;-60
2023/04/27 02:15:40;;;;;;;2.22;1.63;;;22.30;36.40;;;;;;5016918;28;20042;-60
2023/04/27 02:18:07;;;;;;;1.60;1.50;;;22.30;36.40;;;;;;5017140;28;20046;-60
2023/04/27 02:20:34;;;;;;;1.75;1.65;;;22.30;36.40;;;;;;5016703;28;20560;-60
2023/04/27 02:23:01;;;;;;;1.77;1.13;;;22.30;36.40;;;;;;4999882;28;20057;-60
2023/04/27 02:25:29;;;;;;;1.60;1.50;;;22.30;36.40;;;;;;4997443;28;20043;-60
2023/04/27 02:27:56;;;;;;;1.60;1.40;;;22.30;36.40;;;;;;5001207;28;20080;-60
2023/04/27 02:30:24;;;;;;;1.67;1.52;;;22.30;36.40;;;;;;5016542;28;20108;-60
2023/04/27 02:32:51;;;;;;;3.45;2.00;;;22.30;36.50;;;;;;5016889;28;20494;-60
2023/04/27 02:35:18;;;;;;;1.75;1.48;;;22.30;36.50;;;;;;5016393;28;20056;-60
2023/04/27 02:37:46;;;;;;;1.50;1.40;;;22.20;36.40;;;;;;5016352;28;20060;-60
2023/04/27 02:40:13;;;;;;;1.50;1.25;;;22.30;36.50;;;;;;5016345;28;20538;-60
2023/04/27 02:42:40;;;;;;;1.50;1.40;;;22.30;36.50;;;;;;5016257;28;20475;-60
2023/04/27 02:45:07;;;;;;;1.58;1.33;;;22.30;36.50;;;;;;5016749;28;20056;-60
2023/04/27 02:47:34;;;;;;;1.77;1.67;;;22.30;36.60;;;;;;5016115;28;20414;-60
2023/04/27 02:50:02;;;;;;;2.35;1.85;;;22.30;36.60;;;;;;5016234;28;20056;-60
2023/04/27 02:52:30;;;;;;;1.42;1.33;;;22.30;36.60;;;;;;5015590;28;20056;-60
2023/04/27 02:54:57;;;;;;;1.23;1.13;;;22.30;36.60;;;;;;5016260;28;20499;-60
2023/04/27 02:57:24;;;;;;;1.45;1.35;;;22.30;36.60;;;;;;5015920;28;20502;-60
2023/04/27 02:59:51;;;;;;;2.22;1.30;;;22.30;36.60;;;;;;5015893;28;20092;-60
2023/04/27 03:02:18;;;;;;;1.38;1.25;;;22.30;36.60;;;;;;5016011;28;20046;-60
2023/04/27 03:04:46;;;;;;;3.33;1.20;;;22.20;36.60;;;;;;5016113;28;20054;-60
2023/04/27 03:07:14;;;;;;;1.23;1.13;;;22.20;36.60;;;;;;5015161;28;20119;-60
2023/04/27 03:09:41;;;;;;;1.55;1.45;;;22.20;36.60;;;;;;5015827;28;20049;-60
2023/04/27 03:12:09;;;;;;;1.67;1.33;;;22.30;36.70;;;;;;5016008;28;20049;-60
2023/04/27 03:14:36;;;;;;;1.40;1.30;;;22.30;36.60;;;;;;5015669;28;20053;-60
2023/04/27 03:17:03;;;;;;;1.77;1.27;;;22.30;36.60;;;;;;5015987;28;20455;-60
2023/04/27 03:19:30;;;;;;;1.55;1.30;;;22.30;36.60;;;;;;5015914;28;20128;-60
2023/04/27 03:21:57;;;;;;;1.15;1.05;;;22.30;36.50;;;;;;5015479;28;20141;-60
2023/04/27 03:24:24;;;;;;;1.23;1.15;;;22.30;36.50;;;;;;5015201;28;20060;-60
2023/04/27 03:26:51;;;;;;;1.65;1.55;;;22.30;36.50;;;;;;5015726;28;20137;-60
2023/04/27 03:29:18;;;;;;;2.40;1.45;;;22.30;36.50;;;;;;5015343;28;20049;-60
2023/04/27 03:31:45;;;;;;;1.02;0.93;;;22.20;36.40;;;;;;5015784;28;20049;-60
2023/04/27 03:34:13;;;;;;;0.85;0.85;;;22.30;36.50;;;;;;5015309;28;20417;-60
2023/04/27 03:36:40;;;;;;;1.98;1.60;;;22.20;36.40;;;;;;5015590;28;20054;-60
2023/04/27 03:39:07;;;;;;;1.42;1.33;;;22.20;36.40;;;;;;5015053;28;20060;-60
2023/04/27 03:41:34;;;;;;;2.47;1.40;;;22.20;36.40;;;;;;5014199;28;20397;-60
2023/04/27 03:44:02;;;;;;;1.10;1.00;;;22.30;36.40;;;;;;5015321;28;20081;-60
2023/04/27 03:46:29;;;;;;;1.17;1.08;;;22.30;36.40;;;;;;5015215;28;20601;-60
2023/04/27 03:48:56;;;;;;;1.30;1.20;;;22.20;36.40;;;;;;5014894;28;20050;-60
2023/04/27 03:51:23;;;;;;;1.13;1.02;;;22.30;36.40;;;;;;5014892;28;20054;-60
2023/04/27 03:53:50;;;;;;;1.33;1.25;;;22.20;36.40;;;;;;5015024;28;20074;-60
2023/04/27 03:56:17;;;;;;;1.75;1.20;;;22.20;36.40;;;;;;5014810;28;20052;-60
2023/04/27 03:58:45;;;;;;;1.13;0.88;;;22.20;36.40;;;;;;5014689;28;20108;-60
2023/04/27 04:01:13;;;;;;;0.93;0.93;;;22.30;36.40;;;;;;5011178;28;20541;-60
2023/04/27 04:03:40;;;;;;;1.27;1.17;;;22.20;36.40;;;;;;5010547;28;20049;-60
2023/04/27 04:06:08;;;;;;;1.38;1.27;;;22.20;36.40;;;;;;5005732;28;20050;-60
2023/04/27 04:08:35;;;;;;;1.33;1.20;;;22.20;36.30;;;;;;5010983;28;20038;-60
2023/04/27 04:11:03;;;;;;;1.27;1.10;;;22.30;36.30;;;;;;5014589;28;20050;-61
2023/04/27 04:13:30;;;;;;;1.10;1.02;;;22.30;36.30;;;;;;5020076;28;20054;-60
2023/04/27 04:16:06;;;;;;;2.13;1.42;;;22.30;36.30;;;;;;5014825;28;20064;-60
2023/04/27 04:18:34;;;;;;;1.55;0.82;;;22.30;36.30;;;;;;5003696;28;20051;-60
2023/04/27 04:21:02;;;;;;;1.80;1.70;;;22.30;36.30;;;;;;4995006;28;20077;-60
2023/04/27 04:23:29;;;;;;;1.38;1.10;;;22.30;36.20;;;;;;5008564;28;20085;-60
2023/04/27 04:25:56;;;;;;;1.30;1.20;;;22.30;36.20;;;;;;5014572;28;20128;-60
2023/04/27 04:28:24;;;;;;;1.20;1.08;;;22.30;36.10;;;;;;5014550;28;20054;-60
2023/04/27 04:30:51;;;;;;;1.40;1.17;;;22.30;36.20;;;;;;5013421;28;20142;-60
2023/04/27 04:33:19;;;;;;;1.30;1.20;;;22.30;36.20;;;;;;5005205;28;20410;-60
2023/04/27 04:35:46;;;;;;;1.48;1.33;;;22.30;36.10;;;;;;5001122;28;20104;-60
2023/04/27 04:38:13;;;;;;;1.50;1.17;;;22.30;36.00;;;;;;4994770;28;20491;-60
2023/04/27 04:40:41;;;;;;;1.45;1.10;;;22.30;35.80;;;;;;5003009;28;20046;-60
2023/04/27 04:43:12;;;;;;;1.77;1.55;;;22.30;35.80;;;;;;5010254;28;20042;-60
2023/04/27 04:45:39;;;;;;;1.38;1.10;;;22.30;35.80;;;;;;5020083;28;20049;-60
2023/04/27 04:48:07;;;;;;;1.58;1.48;;;22.40;35.80;;;;;;4994173;28;20437;-60
2023/04/27 04:50:34;;;;;;;1.33;1.23;;;22.40;35.80;;;;;;4999400;28;20046;-60
2023/04/27 04:53:01;;;;;;;1.30;1.20;;;22.40;35.80;;;;;;5009502;28;20137;-60
2023/04/27 04:55:29;;;;;;;1.40;1.20;;;22.40;35.90;;;;;;5006344;28;20501;-59
2023/04/27 04:57:56;;;;;;;1.65;1.13;;;22.40;35.90;;;;;;5003461;28;20092;-59
2023/04/27 05:00:23;;;;;;;1.50;1.40;;;22.40;35.90;;;;;;4997202;28;20093;-59
2023/04/27 05:02:50;;;;;;;1.38;1.25;;;22.50;35.90;;;;;;5013088;28;20060;-60
2023/04/27 05:05:18;;;;;;;1.85;1.33;;;22.40;35.90;;;;;;5013196;28;20565;-59
2023/04/27 05:07:45;;;;;;;1.60;1.30;;;22.50;35.90;;;;;;5011000;28;20053;-60
2023/04/27 05:10:12;;;;;;;1.25;1.15;;;22.50;35.80;;;;;;5013426;28;20057;-60
2023/04/27 05:12:39;;;;;;;1.30;1.17;;;22.50;35.80;;;;;;5012653;28;20060;-59
2023/04/27 05:15:07;;;;;;;2.28;1.17;;;22.60;35.80;;;;;;4999747;28;20054;-59
2023/04/27 05:17:35;;;;;;;1.33;1.23;;;22.60;35.70;;;;;;5003885;28;20050;-59
2023/04/27 05:20:03;;;;;;;2.55;1.42;;;22.60;35.70;;;;;;5011977;28;20096;-59
2023/04/27 05:22:31;;;;;;;1.58;1.45;;;22.60;35.70;;;;;;5012011;28;20549;-59
2023/04/27 05:24:58;;;;;;;2.70;1.75;;;22.70;35.70;;;;;;5006065;28;20418;-59
2023/04/27 05:27:25;;;;;;;2.08;1.45;;;22.70;35.60;;;;;;4999545;28;20076;-60
2023/04/27 05:29:53;;;;;;;2.95;1.70;;;22.70;35.50;;;;;;5007809;28;20068;-59
2023/04/27 05:32:20;;;;;;;1.70;1.60;;;22.70;35.50;;;;;;5010943;28;20046;-59
2023/04/27 05:34:47;;;;;;;1.52;1.42;;;22.70;35.50;;;;;;5008851;28;20050;-59
2023/04/27 05:37:15;;;;;;;2.47;1.60;;;22.80;35.50;;;;;;5008434;28;20406;-58
2023/04/27 05:39:42;;;;;;;1.48;1.33;;;22.80;35.40;;;;;;5000152;28;20082;-59
2023/04/27 05:42:10;;;;;;;1.65;1.55;;;22.80;35.40;;;;;;5001101;28;20081;-59
2023/04/27 05:44:37;;;;;;;2.13;2.03;;;22.80;35.40;;;;;;4998616;28;20060;-57
2023/04/27 05:47:05;;;;;;;2.55;1.70;;;22.90;35.50;;;;;;4999375;28;20081;-59
2023/04/27 05:49:32;;;;;;;2.17;1.80;;;22.90;35.60;;;;;;4998027;28;20236;-59
2023/04/27 05:52:00;;;;;;;2.35;1.88;;;22.90;35.70;;;;;;4997517;28;20145;-58
2023/04/27 05:54:27;;;;;;;4.13;1.67;;;22.90;35.70;;;;;;5001992;28;20042;-59
2023/04/27 05:56:55;;;;;;;2.33;1.70;;;23.00;35.90;;;;;;5004042;28;20052;-59
2023/04/27 05:59:22;;;;;;;5.32;2.05;;;23.00;36.50;;;;;;4997429;28;20050;-60
2023/04/27 06:01:49;;;;;;;2.83;1.67;;;23.00;36.00;;;;;;4998767;28;20434;-58
2023/04/27 06:04:16;;;;;;;13.27;2.85;;;23.10;36.00;;;;;;5000269;28;20536;-57
2023/04/27 06:06:44;;;;;;;4.30;2.13;;;23.10;35.80;;;;;;4999400;28;20077;-58
2023/04/27 06:09:11;;;;;;;7.10;2.28;;;23.10;35.60;;;;;;5003482;28;20129;-60
2023/04/27 06:11:39;;;;;;;6.90;2.00;;;23.20;35.60;;;;;;5002098;28;20380;-59
2023/04/27 06:14:06;;;;;;;3.92;2.25;;;23.20;35.50;;;;;;5001802;28;20442;-58
2023/04/27 06:16:33;;;;;;;8.55;1.88;;;23.20;35.30;;;;;;5003062;28;20604;-52
2023/04/27 06:19:01;;;;;;;8.88;2.05;;;23.30;35.40;;;;;;5001323;28;20160;-58
2023/04/27 06:21:32;;;;;;;10.60;2.08;;;23.30;35.40;;;;;;5002800;28;20103;-59
2023/04/27 06:23:59;;;;;;;8.10;1.80;;;23.40;35.50;;;;;;5003352;28;20060;-59
2023/04/27 06:26:27;;;;;;;12.30;2.72;;;23.40;35.40;;;;;;4998451;28;20080;-57
2023/04/27 06:28:55;;;;;;;5.70;1.92;;;23.40;35.40;;;;;;5000442;28;20180;-58
2023/04/27 06:31:22;;;;;;;5.65;2.40;;;23.50;35.50;;;;;;5002219;28;20467;-58
2023/04/27 06:33:49;;;;;;;7.68;2.00;;;23.50;35.40;;;;;;5003992;28;20499;-59
2023/04/27 06:36:16;;;;;;;3.67;1.80;;;23.60;35.50;;;;;;5003880;28;20045;-60
2023/04/27 06:38:44;;;;;;;4.53;2.15;;;23.60;35.40;;;;;;5005427;28;20112;-59
2023/04/27 06:41:11;;;;;;;5.20;1.88;;;23.60;35.40;;;;;;5006526;28;20482;-60
2023/04/27 06:43:39;;;;;;;8.52;3.08;;;23.70;35.30;;;;;;5006719;28;20108;-59
2023/04/27 06:46:06;;;;;;;4.07;2.15;;;23.70;35.30;;;;;;5004858;28;20446;-59
2023/04/27 06:48:33;;;;;;;6.97;1.80;;;23.80;35.30;;;;;;5019434;28;20046;-60
2023/04/27 06:51:00;;;;;;;5.72;1.92;;;23.80;35.10;;;;;;5004267;28;20176;-61
2023/04/27 06:53:30;;;;;;;3.47;1.77;;;23.90;35.20;;;;;;5003980;28;20046;-59
2023/04/27 06:55:57;;;;;;;3.83;2.00;;;23.90;35.20;;;;;;5004914;28;20539;-60
2023/04/27 06:58:25;;;;;;;11.43;2.22;;;23.90;35.00;;;;;;5003931;28;20303;-60
2023/04/27 07:00:53;;;;;;;7.60;2.63;;;24.00;35.00;;;;;;5003209;28;20383;-61
2023/04/27 07:03:21;;;;;;;6.50;2.03;;;24.10;35.10;;;;;;5003511;28;20577;-59
2023/04/27 07:05:50;;;;;;;3.80;1.98;;;24.10;35.10;;;;;;5003170;28;20054;-59
2023/04/27 07:08:17;;;;;;;3.53;1.80;;;24.10;35.00;;;;;;5003598;28;20038;-59
2023/04/27 07:10:45;;;;;;;3.72;1.75;;;24.20;35.20;;;;;;5004432;28;20057;-60
2023/04/27 07:13:12;;;;;;;2.33;1.50;;;24.30;35.10;;;;;;5004266;28;20053;-58
2023/04/27 07:15:40;;;;;;;6.97;1.58;;;24.30;34.80;;;;;;5005600;28;20100;-58
2023/04/27 07:18:10;;;;;;;2.28;1.45;;;24.30;34.50;;;;;;5003743;28;20058;-59
2023/04/27 07:20:37;;;;;;;11.48;2.13;;;24.40;34.20;;;;;;5003662;28;20410;-59
2023/04/27 07:23:05;;;;;;;3.92;1.70;;;24.40;33.90;;;;;;5005344;28;20038;-59
2023/04/27 07:25:32;;;;;;;3.10;1.70;;;24.40;33.70;;;;;;5004385;28;20155;-59
2023/04/27 07:27:59;;;;;;;4.93;1.52;;;24.50;33.70;;;;;;5001530;28;20133;-59
2023/04/27 07:30:29;;;;;;;4.18;1.95;;;24.50;33.50;;;;;;5004272;28;20056;-58
2023/04/27 07:32:57;;;;;;;5.30;1.75;;;24.50;33.30;;;;;;5004774;28;20498;-59
2023/04/27 07:35:24;;;;;;;2.90;1.80;;;24.50;33.20;;;;;;5005939;28;20053;-59
2023/04/27 07:37:51;;;;;;;2.95;2.10;;;24.50;33.10;;;;;;5003570;28;20045;-58
2023/04/27 07:40:18;;;;;;;2.65;1.30;;;24.50;33.00;;;;;;5005436;28;20060;-59
2023/04/27 07:42:47;;;;;;;7.32;1.30;;;24.50;32.80;;;;;;4999486;28;20463;-58
2023/04/27 07:45:16;;;;;;;3.25;1.75;;;24.60;32.80;;;;;;5002907;28;20057;-58
2023/04/27 07:47:43;;;;;;;3.03;1.30;;;24.60;32.70;;;;;;5002653;28;20049;-58
2023/04/27 07:50:13;;;;;;;3.38;1.30;;;24.60;32.60;;;;;;5001893;28;20121;-59
2023/04/27 07:52:40;;;;;;;6.65;2.22;;;24.60;32.50;;;;;;5001662;28;20046;-60
2023/04/27 07:55:07;;;;;;;3.83;1.60;;;24.60;32.50;;;;;;5000032;28;20081;-58
2023/04/27 07:57:34;;;;;;;10.38;2.55;;;24.60;32.40;;;;;;5004988;28;20479;-58
2023/04/27 08:00:04;;;;;;;9.07;1.60;;;24.70;32.30;;;;;;5001091;28;20454;-58
2023/04/27 08:02:33;;;;;;;22.73;3.33;;;24.70;32.30;;;;;;5000733;28;20058;-58
2023/04/27 08:05:01;;;;;;;7.20;1.75;;;24.70;32.30;;;;;;5001526;28;20088;-59
2023/04/27 08:07:30;;;;;;;3.17;1.40;;;24.70;32.30;;;;;;5001801;28;20403;-59
2023/04/27 08:09:58;;;;;;;7.90;1.77;;;24.70;32.20;;;;;;5002943;28;20133;-59
2023/04/27 08:12:25;;;;;;;4.07;1.75;;;24.70;32.20;;;;;;5002819;28;20486;-59
2023/04/27 08:14:53;;;;;;;3.33;1.50;;;24.70;32.10;;;;;;5003234;28;20121;-59
2023/04/27 08:17:21;;;;;;;4.13;1.83;;;24.70;32.10;;;;;;5002531;28;20064;-59
2023/04/27 08:19:48;;;;;;;7.20;1.58;;;24.70;32.00;;;;;;5002246;28;20065;-60
2023/04/27 08:22:15;;;;;;;8.15;1.77;;;24.70;31.90;;;;;;5001050;28;20160;-60
2023/04/27 08:24:42;;;;;;;8.10;1.40;;;24.80;31.80;;;;;;5003555;28;20095;-59
2023/04/27 08:27:10;;;;;;;5.22;1.27;;;24.80;31.70;;;;;;5003181;28;20069;-59
2023/04/27 08:29:37;;;;;;;5.22;1.73;;;24.80;31.60;;;;;;5003249;28;20058;-57
2023/04/27 08:32:05;;;;;;;8.35;2.08;;;24.90;31.60;;;;;;5001517;28;20081;-59
2023/04/27 08:34:32;;;;;;;6.95;1.50;;;24.90;31.60;;;;;;5003203;28;20046;-58
2023/04/27 08:37:01;;;;;;;8.13;1.80;;;24.90;31.60;;;;;;5002317;28;20042;-59
2023/04/27 08:39:28;;;;;;;8.73;1.95;;;24.90;31.50;;;;;;5000788;28;20136;-60
2023/04/27 08:41:55;;;;;;;3.72;1.67;;;24.90;31.40;;;;;;5001560;28;20042;-59
2023/04/27 08:44:23;;;;;;;8.18;2.08;;;24.90;31.30;;;;;;5001756;28;20046;-60
2023/04/27 08:46:50;;;;;;;9.00;1.77;;;24.90;31.30;;;;;;5002004;28;20092;-60
2023/04/27 08:49:17;;;;;;;7.18;1.70;;;24.90;31.20;;;;;;5003062;28;20085;-60
2023/04/27 08:51:45;;;;;;;12.73;2.08;;;25.00;31.20;;;;;;5002210;28;20057;-60
2023/04/27 08:54:13;;;;;;;9.40;2.10;;;25.00;31.20;;;;;;5001130;28;20176;-57
2023/04/27 08:56:40;;;;;;;6.50;1.75;;;25.00;31.10;;;;;;4996948;28;20482;-58
2023/04/27 08:59:14;;;;;;;9.90;2.10;;;25.00;31.40;;;;;;5000026;28;20060;-57
2023/04/27 09:01:47;;;;;;;7.75;2.20;;;25.10;31.30;;;;;;4996365;28;20054;-57
2023/04/27 09:04:17;;;;;;;7.53;1.40;;;25.10;31.20;;;;;;5000767;28;20053;-58
2023/04/27 09:06:45;;;;;;;3.57;1.43;;;25.10;31.10;;;;;;4999945;28;20084;-60
2023/04/27 09:09:22;;;;;;;6.63;1.25;;;25.10;30.90;;;;;;5003882;28;20318;-60
2023/04/27 09:11:50;;;;;;;6.25;1.60;;;25.10;30.70;;;;;;5004884;28;20069;-60
2023/04/27 09:14:20;;;;;;;2.90;1.42;;;25.10;30.60;;;;;;5002970;28;20450;-60
2023/04/27 09:16:56;;;;;;;;;;;25.10;30.40;;;;;;5006274;28;20042;-60
2023/04/27 09:19:25;;;;;;;4.82;1.55;;;25.10;30.40;;;;;;5006762;28;20329;-59
2023/04/27 09:22:06;;;;;;;5.55;2.00;;;25.10;30.40;;;;;;5003219;28;20080;-59
2023/04/27 09:24:34;;;;;;;8.05;1.77;;;25.10;30.20;;;;;;5003208;28;20053;-60
2023/04/27 09:27:02;;;;;;;5.80;1.20;;;25.10;30.10;;;;;;4996906;28;20060;-60
2023/04/27 09:29:38;;;;;;;5.07;1.60;;;25.10;30.10;;;;;;4996203;28;20050;-59
2023/04/27 09:32:22;;;;;;;3.92;0.98;;;25.10;30.00;;;;;;4995568;28;20065;-60
2023/04/27 09:34:50;;;;;;;7.47;1.55;;;25.10;30.00;;;;;;4996285;28;20053;-60
2023/04/27 09:37:18;;;;;;;5.97;1.40;;;25.00;30.00;;;;;;4993340;28;20077;-60
2023/04/27 09:39:46;;;;;;;4.65;1.30;;;25.00;30.00;;;;;;4998702;28;20229;-60
2023/04/27 09:42:14;;;;;;;3.67;1.50;;;25.00;30.00;;;;;;4999155;28;21154;-59
2023/04/27 09:44:41;;;;;;;6.75;1.77;;;25.00;30.00;;;;;;5005265;28;20045;-59
2023/04/27 09:47:10;;;;;;;2.80;1.20;;;25.00;30.00;;;;;;5007379;28;20121;-58
2023/04/27 09:49:37;;;;;;;4.00;1.77;;;25.00;30.00;;;;;;5001429;28;20046;-58
2023/04/27 09:52:05;;;;;;;8.43;1.63;;;25.00;30.00;;;;;;5018909;28;20104;-60
2023/04/27 09:54:34;;;;;;;2.85;1.20;;;25.00;30.00;;;;;;4991113;28;20053;-60
2023/04/27 09:57:26;;;;;;;5.82;1.40;;;25.10;30.00;;;;;;5007786;28;20038;-61
2023/04/27 10:00:09;;;;;;;6.13;1.33;;;25.10;30.00;;;;;;5007468;28;20407;-60
2023/04/27 10:02:52;;;;;;;8.30;1.25;;;25.10;30.00;;;;;;5003902;28;20470;-60
2023/04/27 10:05:41;;;;;;;4.25;1.67;;;25.10;30.20;;;;;;5008868;28;20050;-59
2023/04/27 10:08:10;;;;;;;2.55;1.20;;;25.10;30.10;;;;;;5008246;28;20050;-60
2023/04/27 10:10:48;;;;;;;4.55;1.25;;;25.20;30.00;;;;;;5007252;28;20047;-59
2023/04/27 10:13:23;;;;;;;2.42;1.05;;;25.20;30.00;;;;;;5010678;28;20046;-59
2023/04/27 10:15:51;;;;;;;2.10;0.98;;;25.30;30.00;;;;;;5008959;28;20076;-59
2023/04/27 10:18:28;;;;;;;2.10;0.98;;;25.20;29.90;;;;;;5008943;28;20050;-59
2023/04/27 10:20:55;;;;;;;3.75;1.27;;;25.30;29.80;;;;;;5006973;28;20066;-58
2023/04/27 10:23:24;;;;;;;1.67;0.98;;;25.30;29.80;;;;;;5006433;28;20058;-59
2023/04/27 10:25:53;;;;;;;2.10;1.05;;;25.40;29.80;;;;;;5010306;28;20124;-60
2023/04/27 10:28:22;;;;;;;1.85;1.00;;;25.40;29.70;;;;;;5011042;28;20045;-60
2023/04/27 10:30:49;;;;;;;1.40;1.27;;;25.40;29.80;;;;;;5008634;28;20046;-59
2023/04/27 10:33:19;;;;;;;1.45;1.15;;;25.40;29.80;;;;;;5007413;28;20469;-59
2023/04/27 10:35:55;;;;;;;2.42;1.25;;;25.40;29.70;;;;;;5005555;28;20043;-59
2023/04/27 10:38:29;;;;;;;1.95;0.73;;;25.40;29.70;;;;;;4998702;28;20049;-59
2023/04/27 10:41:00;;;;;;;3.53;1.30;;;25.40;29.60;;;;;;5007787;28;20482;-55
2023/04/27 10:43:30;;;;;;;1.90;0.60;;;25.40;29.60;;;;;;5007296;28;20052;-57
2023/04/27 10:46:12;;;;;;;1.95;1.00;;;25.40;29.50;;;;;;5008345;28;20097;-58
2023/04/27 10:48:42;;;;;;;4.50;0.80;;;25.40;29.40;;;;;;5007457;28;20048;-58
2023/04/27 10:51:14;;;;;;;1.83;1.23;;;25.40;29.40;;;;;;5000786;28;20424;-59
2023/04/27 10:53:41;;;;;;;3.13;1.15;;;25.50;29.50;;;;;;5003843;28;20058;-57
2023/04/27 10:56:09;;;;;;;4.22;1.10;;;25.50;29.50;;;;;;5001481;28;20490;-59
2023/04/27 10:58:37;;;;;;;2.60;1.15;;;25.50;29.20;;;;;;5004984;28;20050;-56
2023/04/27 11:01:08;;;;;;;2.50;1.00;;;25.50;29.20;;;;;;5006572;28;20502;-58
2023/04/27 11:03:36;;;;;;;2.95;1.15;;;25.60;29.20;;;;;;5004879;28;20049;-58
2023/04/27 11:06:04;;;;;;;0.98;0.85;;;25.50;29.00;;;;;;5002503;28;20557;-57
2023/04/27 11:08:35;;;;;;;0.82;0.82;;;25.50;28.90;;;;;;5004025;28;20052;-57
2023/04/27 11:11:04;;;;;;;1.45;0.63;;;25.50;29.00;;;;;;5008908;28;20473;-59
2023/04/27 11:13:32;;;;;;;2.03;0.88;;;25.50;29.00;;;;;;5006493;28;20058;-57
2023/04/27 11:16:00;;;;;;;2.28;0.77;;;25.50;29.00;;;;;;5007190;28;20132;-57
2023/04/27 11:18:30;;;;;;;1.42;0.73;;;25.50;29.00;;;;;;5003506;28;20057;-57
2023/04/27 11:21:13;;;;;;;1.95;1.25;;;25.50;28.90;;;;;;5007448;28;20050;-58
2023/04/27 11:23:41;;;;;;;2.92;0.93;;;25.50;28.90;;;;;;5005908;28;20144;-58
2023/04/27 11:26:20;;;;;;;3.95;1.02;;;25.50;29.00;;;;;;5008951;28;20116;-60
2023/04/27 11:29:12;;;;;;;1.27;0.70;;;25.50;29.10;;;;;;4998567;28;20053;-58
2023/04/27 11:31:47;;;;;;;2.55;1.05;;;25.50;29.30;;;;;;4999881;28;20072;-57
2023/04/27 11:34:24;;;;;;;2.25;0.82;;;25.50;29.50;;;;;;5002762;28;20128;-59
2023/04/27 11:37:02;;;;;;;3.40;1.35;;;25.50;29.50;;;;;;4997801;28;20069;-57
2023/04/27 11:39:45;;;;;;;3.25;0.82;;;25.50;29.70;;;;;;4995993;28;20509;-58
2023/04/27 11:42:23;;;;;;;3.30;0.90;;;25.60;29.70;;;;;;5002750;28;20129;-59
2023/04/27 11:44:58;;;;;;;1.20;0.95;;;25.60;30.10;;;;;;5001663;28;20124;-58
2023/04/27 11:47:31;;;;;;;0.80;0.70;;;25.50;29.70;;;;;;5001572;28;20058;-59
2023/04/27 11:50:01;;;;;;;1.77;0.93;;;25.60;29.70;;;;;;5009711;28;20130;-58
2023/04/27 11:52:34;;;;;;;1.95;0.98;;;25.60;29.70;;;;;;5006237;28;20127;-58
2023/04/27 11:55:03;;;;;;;1.23;0.80;;;25.60;29.70;;;;;;5006851;28;20084;-58
2023/04/27 11:57:34;;;;;;;1.75;0.85;;;25.60;29.80;;;;;;5004977;28;20060;-58
2023/04/27 12:00:13;;;;;;;2.50;1.10;;;25.60;29.80;;;;;;5003863;28;20184;-59
2023/04/27 12:02:42;;;;;;;1.02;0.57;;;25.60;29.70;;;;;;5007375;28;20688;-59
2023/04/27 12:05:10;;;;;;;1.02;0.77;;;25.60;29.60;;;;;;5005987;28;20092;-58
2023/04/27 12:07:40;;;;;;;3.92;0.75;;;25.60;29.60;;;;;;5000317;28;20058;-59
2023/04/27 12:10:08;;;;;;;0.82;0.63;;;25.70;29.80;;;;;;5006311;28;20495;-59
2023/04/27 12:12:35;;;;;;;9.27;0.95;;;25.60;29.90;;;;;;5006562;28;20871;-59
2023/04/27 12:15:02;;;;;;;6.82;1.23;;;25.60;29.90;;;;;;5002396;28;20058;-61
2023/04/27 12:17:30;;;;;;;1.38;0.93;;;25.70;30.00;;;;;;5001961;28;20124;-58
2023/04/27 12:19:57;;;;;;;1.15;0.80;;;25.70;29.90;;;;;;5005493;28;20084;-59
2023/04/27 12:22:24;;;;;;;0.88;0.60;;;25.70;29.90;;;;;;5007479;28;20426;-60
2023/04/27 12:24:52;;;;;;;0.73;0.73;;;25.70;29.90;;;;;;5003631;28;20057;-57
2023/04/27 12:27:19;;;;;;;2.10;0.70;;;25.70;29.80;;;;;;5007572;28;20052;-56
2023/04/27 12:29:46;;;;;;;2.63;0.77;;;25.70;29.70;;;;;;5004037;28;20088;-58
2023/04/27 12:32:13;;;;;;;2.53;0.85;;;25.80;29.80;;;;;;5002726;28;20561;-58
2023/04/27 12:34:41;;;;;;;2.13;1.02;;;25.80;29.70;;;;;;5002910;28;20667;-59
2023/04/27 12:37:08;;;;;;;0.73;0.68;;;25.80;29.70;;;;;;4996333;28;20130;-59
2023/04/27 12:39:36;;;;;;;2.58;0.52;;;25.80;29.80;;;;;;4999639;28;20573;-59
2023/04/27 12:42:03;;;;;;;1.35;0.90;;;25.90;30.00;;;;;;4997760;28;20639;-59
2023/04/27 12:44:31;;;;;;;2.78;0.80;;;25.90;30.10;;;;;;5002352;28;20054;-60
2023/04/27 12:46:58;;;;;;;1.83;0.80;;;25.90;30.00;;;;;;4999956;28;20109;-59
2023/04/27 12:49:25;;;;;;;1.17;0.85;;;25.90;30.00;;;;;;5004895;28;20113;-59
2023/04/27 12:51:52;;;;;;;2.70;0.80;;;25.90;29.90;;;;;;4999905;28;20037;-59
2023/04/27 12:54:20;;;;;;;2.25;0.65;;;25.90;29.90;;;;;;5002920;28;20048;-59